sensor_id;sensor_type;location;lat;lon;timestamp;P1;durP1;ratioP1;P2;durP2;ratioP2
9836;SDS011;4957;51.412;6.724;2024-02-14T00:02:17;7.60;;;3.80;;
9836;SDS011;4957;51.412;6.724;2024-02-14T00:04:42;7.33;;;3.53;;
9836;SDS011;4957;51.412;6.724;2024-02-14T00:07:08;6.23;;;3.60;;
9836;SDS011;4957;51.412;6.724;2024-02-14T00:09:34;8.07;;;3.77;;
9836;SDS011;4957;51.412;6.724;2024-02-14T00:12:00;6.80;;;4.23;;
9836;SDS011;4957;51.412;6.724;2024-02-14T00:14:26;7.17;;;4.10;;
9836;SDS011;4957;51.412;6.724;2024-02-14T00:16:52;11.20;;;4.27;;
9836;SDS011;4957;51.412;6.724;2024-02-14T00:19:17;6.97;;;3.53;;
9836;SDS011;4957;51.412;6.724;2024-02-14T00:21:43;5.50;;;3.07;;
9836;SDS011;4957;51.412;6.724;2024-02-14T00:24:09;6.13;;;3.53;;
9836;SDS011;4957;51.412;6.724;2024-02-14T00:26:34;5.97;;;3.20;;
9836;SDS011;4957;51.412;6.724;2024-02-14T00:29:00;7.23;;;3.30;;
9836;SDS011;4957;51.412;6.724;2024-02-14T00:31:26;9.67;;;3.70;;
9836;SDS011;4957;51.412;6.724;2024-02-14T00:33:52;6.27;;;3.20;;
9836;SDS011;4957;51.412;6.724;2024-02-14T00:36:18;10.37;;;3.50;;
9836;SDS011;4957;51.412;6.724;2024-02-14T00:38:44;7.30;;;3.23;;
9836;SDS011;4957;51.412;6.724;2024-02-14T00:41:10;7.07;;;3.37;;
9836;SDS011;4957;51.412;6.724;2024-02-14T00:43:36;7.90;;;4.00;;
9836;SDS011;4957;51.412;6.724;2024-02-14T00:46:02;3.73;;;2.90;;
9836;SDS011;4957;51.412;6.724;2024-02-14T00:48:27;7.80;;;3.43;;
9836;SDS011;4957;51.412;6.724;2024-02-14T00:50:53;7.60;;;2.93;;
9836;SDS011;4957;51.412;6.724;2024-02-14T00:53:19;8.13;;;3.47;;
9836;SDS011;4957;51.412;6.724;2024-02-14T00:55:46;7.50;;;3.40;;
9836;SDS011;4957;51.412;6.724;2024-02-14T00:58:11;5.20;;;3.20;;
9836;SDS011;4957;51.412;6.724;2024-02-14T01:00:37;8.60;;;3.30;;
9836;SDS011;4957;51.412;6.724;2024-02-14T01:03:03;7.10;;;4.23;;
9836;SDS011;4957;51.412;6.724;2024-02-14T01:05:32;5.00;;;3.20;;
9836;SDS011;4957;51.412;6.724;2024-02-14T01:07:58;9.03;;;3.40;;
9836;SDS011;4957;51.412;6.724;2024-02-14T01:10:24;6.70;;;3.10;;
9836;SDS011;4957;51.412;6.724;2024-02-14T01:12:49;6.37;;;3.07;;
9836;SDS011;4957;51.412;6.724;2024-02-14T01:15:15;7.70;;;3.20;;
9836;SDS011;4957;51.412;6.724;2024-02-14T01:17:40;7.70;;;3.00;;
9836;SDS011;4957;51.412;6.724;2024-02-14T01:20:06;3.33;;;2.10;;
9836;SDS011;4957;51.412;6.724;2024-02-14T01:22:34;4.50;;;2.57;;
9836;SDS011;4957;51.412;6.724;2024-02-14T01:25:01;4.70;;;2.67;;
9836;SDS011;4957;51.412;6.724;2024-02-14T01:27:28;7.43;;;2.60;;
9836;SDS011;4957;51.412;6.724;2024-02-14T01:29:53;6.87;;;2.70;;
9836;SDS011;4957;51.412;6.724;2024-02-14T01:32:20;5.47;;;2.83;;
9836;SDS011;4957;51.412;6.724;2024-02-14T01:34:45;9.57;;;3.77;;
9836;SDS011;4957;51.412;6.724;2024-02-14T01:37:11;6.97;;;3.40;;
9836;SDS011;4957;51.412;6.724;2024-02-14T01:39:37;7.20;;;3.07;;
9836;SDS011;4957;51.412;6.724;2024-02-14T01:42:03;8.17;;;3.20;;
9836;SDS011;4957;51.412;6.724;2024-02-14T01:44:32;9.03;;;3.83;;
9836;SDS011;4957;51.412;6.724;2024-02-14T01:46:59;9.40;;;4.10;;
9836;SDS011;4957;51.412;6.724;2024-02-14T01:49:25;9.43;;;4.20;;
9836;SDS011;4957;51.412;6.724;2024-02-14T01:51:55;9.07;;;4.23;;
9836;SDS011;4957;51.412;6.724;2024-02-14T01:54:24;8.37;;;4.17;;
9836;SDS011;4957;51.412;6.724;2024-02-14T01:56:51;7.93;;;2.50;;
9836;SDS011;4957;51.412;6.724;2024-02-14T01:59:18;8.13;;;2.97;;
9836;SDS011;4957;51.412;6.724;2024-02-14T02:01:44;3.23;;;2.40;;
9836;SDS011;4957;51.412;6.724;2024-02-14T02:04:10;3.63;;;2.23;;
9836;SDS011;4957;51.412;6.724;2024-02-14T02:06:35;3.40;;;2.03;;
9836;SDS011;4957;51.412;6.724;2024-02-14T02:09:02;7.60;;;2.17;;
9836;SDS011;4957;51.412;6.724;2024-02-14T02:11:28;2.63;;;2.00;;
9836;SDS011;4957;51.412;6.724;2024-02-14T02:13:54;1.80;;;1.53;;
9836;SDS011;4957;51.412;6.724;2024-02-14T02:16:20;2.33;;;1.50;;
9836;SDS011;4957;51.412;6.724;2024-02-14T02:18:46;7.80;;;2.00;;
9836;SDS011;4957;51.412;6.724;2024-02-14T02:21:13;3.07;;;1.57;;
9836;SDS011;4957;51.412;6.724;2024-02-14T02:23:39;2.17;;;1.60;;
9836;SDS011;4957;51.412;6.724;2024-02-14T02:26:06;1.60;;;1.50;;
9836;SDS011;4957;51.412;6.724;2024-02-14T02:28:32;2.87;;;1.67;;
9836;SDS011;4957;51.412;6.724;2024-02-14T02:30:58;2.60;;;1.70;;
9836;SDS011;4957;51.412;6.724;2024-02-14T02:33:24;3.10;;;1.67;;
9836;SDS011;4957;51.412;6.724;2024-02-14T02:35:51;3.50;;;1.70;;
9836;SDS011;4957;51.412;6.724;2024-02-14T02:38:17;3.03;;;1.47;;
9836;SDS011;4957;51.412;6.724;2024-02-14T02:40:43;4.10;;;2.07;;
9836;SDS011;4957;51.412;6.724;2024-02-14T02:43:09;6.83;;;1.40;;
9836;SDS011;4957;51.412;6.724;2024-02-14T02:45:35;2.73;;;1.53;;
9836;SDS011;4957;51.412;6.724;2024-02-14T02:48:01;2.17;;;1.47;;
9836;SDS011;4957;51.412;6.724;2024-02-14T02:50:27;2.37;;;1.73;;
9836;SDS011;4957;51.412;6.724;2024-02-14T02:52:54;1.83;;;1.27;;
9836;SDS011;4957;51.412;6.724;2024-02-14T02:55:20;1.63;;;1.30;;
9836;SDS011;4957;51.412;6.724;2024-02-14T02:57:45;2.03;;;1.60;;
9836;SDS011;4957;51.412;6.724;2024-02-14T03:00:11;5.00;;;1.97;;
9836;SDS011;4957;51.412;6.724;2024-02-14T03:02:41;4.50;;;1.93;;
9836;SDS011;4957;51.412;6.724;2024-02-14T03:05:09;2.23;;;1.60;;
9836;SDS011;4957;51.412;6.724;2024-02-14T03:07:42;2.63;;;1.53;;
9836;SDS011;4957;51.412;6.724;2024-02-14T03:10:10;5.47;;;2.10;;
9836;SDS011;4957;51.412;6.724;2024-02-14T03:12:38;4.23;;;1.73;;
9836;SDS011;4957;51.412;6.724;2024-02-14T03:15:04;2.27;;;1.77;;
9836;SDS011;4957;51.412;6.724;2024-02-14T03:17:30;2.67;;;1.70;;
9836;SDS011;4957;51.412;6.724;2024-02-14T03:19:56;2.10;;;1.60;;
9836;SDS011;4957;51.412;6.724;2024-02-14T03:22:22;1.97;;;1.70;;
9836;SDS011;4957;51.412;6.724;2024-02-14T03:24:48;2.47;;;1.73;;
9836;SDS011;4957;51.412;6.724;2024-02-14T03:27:13;1.70;;;1.60;;
9836;SDS011;4957;51.412;6.724;2024-02-14T03:29:39;2.37;;;1.80;;
9836;SDS011;4957;51.412;6.724;2024-02-14T03:32:05;3.00;;;1.90;;
9836;SDS011;4957;51.412;6.724;2024-02-14T03:34:33;3.43;;;1.87;;
9836;SDS011;4957;51.412;6.724;2024-02-14T03:37:00;3.60;;;2.17;;
9836;SDS011;4957;51.412;6.724;2024-02-14T03:39:27;8.13;;;2.00;;
9836;SDS011;4957;51.412;6.724;2024-02-14T03:41:53;3.80;;;1.97;;
9836;SDS011;4957;51.412;6.724;2024-02-14T03:44:20;5.27;;;2.40;;
9836;SDS011;4957;51.412;6.724;2024-02-14T03:46:47;2.90;;;1.83;;
9836;SDS011;4957;51.412;6.724;2024-02-14T03:49:13;6.23;;;1.87;;
9836;SDS011;4957;51.412;6.724;2024-02-14T03:51:39;4.23;;;1.80;;
9836;SDS011;4957;51.412;6.724;2024-02-14T03:54:05;2.03;;;1.83;;
9836;SDS011;4957;51.412;6.724;2024-02-14T03:56:31;2.80;;;2.07;;
9836;SDS011;4957;51.412;6.724;2024-02-14T03:58:58;2.57;;;2.00;;
9836;SDS011;4957;51.412;6.724;2024-02-14T04:01:24;4.63;;;2.10;;
9836;SDS011;4957;51.412;6.724;2024-02-14T04:03:50;3.93;;;2.30;;
9836;SDS011;4957;51.412;6.724;2024-02-14T04:06:15;4.83;;;2.20;;
9836;SDS011;4957;51.412;6.724;2024-02-14T04:08:42;2.23;;;1.97;;
9836;SDS011;4957;51.412;6.724;2024-02-14T04:11:08;5.53;;;2.60;;
9836;SDS011;4957;51.412;6.724;2024-02-14T04:13:34;2.27;;;2.03;;
9836;SDS011;4957;51.412;6.724;2024-02-14T04:16:00;4.73;;;2.23;;
9836;SDS011;4957;51.412;6.724;2024-02-14T04:18:26;3.90;;;2.40;;
9836;SDS011;4957;51.412;6.724;2024-02-14T04:20:52;5.00;;;2.70;;
9836;SDS011;4957;51.412;6.724;2024-02-14T04:23:18;4.47;;;2.70;;
9836;SDS011;4957;51.412;6.724;2024-02-14T04:25:43;3.33;;;2.53;;
9836;SDS011;4957;51.412;6.724;2024-02-14T04:28:09;4.47;;;2.30;;
9836;SDS011;4957;51.412;6.724;2024-02-14T04:30:36;4.30;;;2.10;;
9836;SDS011;4957;51.412;6.724;2024-02-14T04:33:03;6.73;;;2.23;;
9836;SDS011;4957;51.412;6.724;2024-02-14T04:35:29;5.47;;;2.60;;
9836;SDS011;4957;51.412;6.724;2024-02-14T04:37:55;2.30;;;1.97;;
9836;SDS011;4957;51.412;6.724;2024-02-14T04:40:21;5.93;;;2.43;;
9836;SDS011;4957;51.412;6.724;2024-02-14T04:42:47;3.73;;;2.43;;
9836;SDS011;4957;51.412;6.724;2024-02-14T04:45:13;2.63;;;2.20;;
9836;SDS011;4957;51.412;6.724;2024-02-14T04:47:39;2.57;;;2.07;;
9836;SDS011;4957;51.412;6.724;2024-02-14T04:50:05;5.10;;;2.50;;
9836;SDS011;4957;51.412;6.724;2024-02-14T04:52:31;4.27;;;2.53;;
9836;SDS011;4957;51.412;6.724;2024-02-14T04:54:56;7.37;;;2.57;;
9836;SDS011;4957;51.412;6.724;2024-02-14T04:57:22;2.33;;;2.13;;
9836;SDS011;4957;51.412;6.724;2024-02-14T04:59:48;4.50;;;2.37;;
9836;SDS011;4957;51.412;6.724;2024-02-14T05:02:14;3.53;;;2.33;;
9836;SDS011;4957;51.412;6.724;2024-02-14T05:04:39;3.00;;;2.33;;
9836;SDS011;4957;51.412;6.724;2024-02-14T05:07:05;4.20;;;2.43;;
9836;SDS011;4957;51.412;6.724;2024-02-14T05:09:31;5.03;;;2.60;;
9836;SDS011;4957;51.412;6.724;2024-02-14T05:11:57;3.27;;;2.53;;
9836;SDS011;4957;51.412;6.724;2024-02-14T05:14:23;5.50;;;2.40;;
9836;SDS011;4957;51.412;6.724;2024-02-14T05:16:49;4.03;;;2.33;;
9836;SDS011;4957;51.412;6.724;2024-02-14T05:19:14;3.70;;;2.27;;
9836;SDS011;4957;51.412;6.724;2024-02-14T05:21:40;3.87;;;3.13;;
9836;SDS011;4957;51.412;6.724;2024-02-14T05:24:06;4.03;;;2.70;;
9836;SDS011;4957;51.412;6.724;2024-02-14T05:26:33;3.17;;;2.47;;
9836;SDS011;4957;51.412;6.724;2024-02-14T05:28:59;2.87;;;2.20;;
9836;SDS011;4957;51.412;6.724;2024-02-14T05:31:24;2.80;;;2.20;;
9836;SDS011;4957;51.412;6.724;2024-02-14T05:33:54;5.33;;;2.87;;
9836;SDS011;4957;51.412;6.724;2024-02-14T05:36:19;3.00;;;2.50;;
9836;SDS011;4957;51.412;6.724;2024-02-14T05:38:45;2.97;;;2.67;;
9836;SDS011;4957;51.412;6.724;2024-02-14T05:41:11;3.10;;;2.90;;
9836;SDS011;4957;51.412;6.724;2024-02-14T05:43:36;4.87;;;2.60;;
9836;SDS011;4957;51.412;6.724;2024-02-14T05:46:03;4.17;;;2.63;;
9836;SDS011;4957;51.412;6.724;2024-02-14T05:48:29;2.63;;;2.40;;
9836;SDS011;4957;51.412;6.724;2024-02-14T05:50:55;5.97;;;2.63;;
9836;SDS011;4957;51.412;6.724;2024-02-14T05:53:20;2.70;;;2.50;;
9836;SDS011;4957;51.412;6.724;2024-02-14T05:55:46;3.57;;;2.67;;
9836;SDS011;4957;51.412;6.724;2024-02-14T05:58:12;4.37;;;3.00;;
9836;SDS011;4957;51.412;6.724;2024-02-14T06:00:38;5.00;;;3.10;;
9836;SDS011;4957;51.412;6.724;2024-02-14T06:03:04;5.80;;;2.97;;
9836;SDS011;4957;51.412;6.724;2024-02-14T06:05:31;5.53;;;2.93;;
9836;SDS011;4957;51.412;6.724;2024-02-14T06:07:57;3.40;;;3.07;;
9836;SDS011;4957;51.412;6.724;2024-02-14T06:10:22;4.77;;;2.63;;
9836;SDS011;4957;51.412;6.724;2024-02-14T06:12:50;5.23;;;2.77;;
9836;SDS011;4957;51.412;6.724;2024-02-14T06:15:16;5.33;;;3.10;;
9836;SDS011;4957;51.412;6.724;2024-02-14T06:17:42;3.83;;;2.80;;
9836;SDS011;4957;51.412;6.724;2024-02-14T06:20:07;5.80;;;3.30;;
9836;SDS011;4957;51.412;6.724;2024-02-14T06:22:34;4.53;;;2.93;;
9836;SDS011;4957;51.412;6.724;2024-02-14T06:25:00;5.47;;;3.13;;
9836;SDS011;4957;51.412;6.724;2024-02-14T06:27:26;5.77;;;2.97;;
9836;SDS011;4957;51.412;6.724;2024-02-14T06:29:52;4.83;;;3.13;;
9836;SDS011;4957;51.412;6.724;2024-02-14T06:32:18;3.93;;;2.90;;
9836;SDS011;4957;51.412;6.724;2024-02-14T06:34:44;4.50;;;3.10;;
9836;SDS011;4957;51.412;6.724;2024-02-14T06:37:09;4.03;;;3.17;;
9836;SDS011;4957;51.412;6.724;2024-02-14T06:39:35;3.90;;;3.17;;
9836;SDS011;4957;51.412;6.724;2024-02-14T06:42:01;5.00;;;3.50;;
9836;SDS011;4957;51.412;6.724;2024-02-14T06:44:26;4.53;;;3.07;;
9836;SDS011;4957;51.412;6.724;2024-02-14T06:46:52;4.07;;;3.10;;
9836;SDS011;4957;51.412;6.724;2024-02-14T06:49:18;4.23;;;3.23;;
9836;SDS011;4957;51.412;6.724;2024-02-14T06:51:44;5.07;;;3.53;;
9836;SDS011;4957;51.412;6.724;2024-02-14T06:54:10;3.97;;;3.53;;
9836;SDS011;4957;51.412;6.724;2024-02-14T06:56:37;6.87;;;4.27;;
9836;SDS011;4957;51.412;6.724;2024-02-14T06:59:03;5.00;;;3.53;;
9836;SDS011;4957;51.412;6.724;2024-02-14T07:01:29;6.77;;;4.33;;
9836;SDS011;4957;51.412;6.724;2024-02-14T07:03:55;5.67;;;4.03;;
9836;SDS011;4957;51.412;6.724;2024-02-14T07:06:21;7.23;;;4.30;;
9836;SDS011;4957;51.412;6.724;2024-02-14T07:08:47;4.87;;;3.53;;
9836;SDS011;4957;51.412;6.724;2024-02-14T07:11:13;5.13;;;3.87;;
9836;SDS011;4957;51.412;6.724;2024-02-14T07:13:40;6.63;;;4.20;;
9836;SDS011;4957;51.412;6.724;2024-02-14T07:16:06;6.97;;;3.90;;
9836;SDS011;4957;51.412;6.724;2024-02-14T07:18:33;6.90;;;4.10;;
9836;SDS011;4957;51.412;6.724;2024-02-14T07:20:59;8.13;;;4.10;;
9836;SDS011;4957;51.412;6.724;2024-02-14T07:23:25;7.40;;;3.97;;
9836;SDS011;4957;51.412;6.724;2024-02-14T07:25:51;6.80;;;4.10;;
9836;SDS011;4957;51.412;6.724;2024-02-14T07:28:17;5.83;;;3.47;;
9836;SDS011;4957;51.412;6.724;2024-02-14T07:30:43;5.67;;;4.00;;
9836;SDS011;4957;51.412;6.724;2024-02-14T07:33:09;4.67;;;3.50;;
9836;SDS011;4957;51.412;6.724;2024-02-14T07:35:36;9.27;;;4.00;;
9836;SDS011;4957;51.412;6.724;2024-02-14T07:38:02;8.33;;;4.10;;
9836;SDS011;4957;51.412;6.724;2024-02-14T07:40:27;4.20;;;3.77;;
9836;SDS011;4957;51.412;6.724;2024-02-14T07:42:56;6.27;;;3.80;;
9836;SDS011;4957;51.412;6.724;2024-02-14T07:45:22;8.97;;;4.37;;
9836;SDS011;4957;51.412;6.724;2024-02-14T07:47:49;5.63;;;4.20;;
9836;SDS011;4957;51.412;6.724;2024-02-14T07:50:15;5.57;;;4.10;;
9836;SDS011;4957;51.412;6.724;2024-02-14T07:52:44;5.67;;;3.83;;
9836;SDS011;4957;51.412;6.724;2024-02-14T07:55:10;8.23;;;4.70;;
9836;SDS011;4957;51.412;6.724;2024-02-14T07:57:39;8.67;;;4.37;;
9836;SDS011;4957;51.412;6.724;2024-02-14T08:00:06;4.50;;;3.97;;
9836;SDS011;4957;51.412;6.724;2024-02-14T08:02:35;6.83;;;4.13;;
9836;SDS011;4957;51.412;6.724;2024-02-14T08:05:02;4.30;;;3.90;;
9836;SDS011;4957;51.412;6.724;2024-02-14T08:07:29;6.47;;;3.40;;
9836;SDS011;4957;51.412;6.724;2024-02-14T08:09:56;8.77;;;4.13;;
9836;SDS011;4957;51.412;6.724;2024-02-14T08:12:22;7.03;;;3.70;;
9836;SDS011;4957;51.412;6.724;2024-02-14T08:14:48;6.40;;;4.30;;
9836;SDS011;4957;51.412;6.724;2024-02-14T08:17:13;8.17;;;4.07;;
9836;SDS011;4957;51.412;6.724;2024-02-14T08:19:39;7.97;;;4.40;;
9836;SDS011;4957;51.412;6.724;2024-02-14T08:22:05;6.20;;;4.07;;
9836;SDS011;4957;51.412;6.724;2024-02-14T08:24:32;9.67;;;3.80;;
9836;SDS011;4957;51.412;6.724;2024-02-14T08:26:57;5.97;;;3.93;;
9836;SDS011;4957;51.412;6.724;2024-02-14T08:29:23;10.20;;;3.63;;
9836;SDS011;4957;51.412;6.724;2024-02-14T08:31:49;4.80;;;3.67;;
9836;SDS011;4957;51.412;6.724;2024-02-14T08:34:15;4.90;;;3.10;;
9836;SDS011;4957;51.412;6.724;2024-02-14T08:36:41;4.33;;;3.10;;
9836;SDS011;4957;51.412;6.724;2024-02-14T08:39:07;5.37;;;3.37;;
9836;SDS011;4957;51.412;6.724;2024-02-14T08:41:35;11.87;;;3.40;;
9836;SDS011;4957;51.412;6.724;2024-02-14T08:44:03;4.83;;;2.83;;
9836;SDS011;4957;51.412;6.724;2024-02-14T08:46:30;4.90;;;2.73;;
9836;SDS011;4957;51.412;6.724;2024-02-14T08:48:56;6.47;;;2.47;;
9836;SDS011;4957;51.412;6.724;2024-02-14T08:51:21;5.33;;;2.43;;
9836;SDS011;4957;51.412;6.724;2024-02-14T08:53:47;4.23;;;2.70;;
9836;SDS011;4957;51.412;6.724;2024-02-14T08:56:13;6.50;;;2.73;;
9836;SDS011;4957;51.412;6.724;2024-02-14T08:58:42;4.10;;;2.73;;
9836;SDS011;4957;51.412;6.724;2024-02-14T09:01:09;5.40;;;2.90;;
9836;SDS011;4957;51.412;6.724;2024-02-14T09:03:36;4.07;;;2.80;;
9836;SDS011;4957;51.412;6.724;2024-02-14T09:06:01;4.20;;;2.40;;
9836;SDS011;4957;51.412;6.724;2024-02-14T09:08:28;6.53;;;2.67;;
9836;SDS011;4957;51.412;6.724;2024-02-14T09:10:56;5.80;;;2.47;;
9836;SDS011;4957;51.412;6.724;2024-02-14T09:13:22;8.07;;;2.83;;
9836;SDS011;4957;51.412;6.724;2024-02-14T09:15:48;7.50;;;2.77;;
9836;SDS011;4957;51.412;6.724;2024-02-14T09:18:15;6.47;;;2.77;;
9836;SDS011;4957;51.412;6.724;2024-02-14T09:20:44;4.13;;;3.00;;
9836;SDS011;4957;51.412;6.724;2024-02-14T09:23:11;3.10;;;2.50;;
9836;SDS011;4957;51.412;6.724;2024-02-14T09:25:39;7.30;;;3.10;;
9836;SDS011;4957;51.412;6.724;2024-02-14T09:28:05;5.27;;;2.60;;
9836;SDS011;4957;51.412;6.724;2024-02-14T09:30:32;4.30;;;2.80;;
9836;SDS011;4957;51.412;6.724;2024-02-14T09:33:04;3.90;;;2.50;;
9836;SDS011;4957;51.412;6.724;2024-02-14T09:35:32;6.37;;;3.00;;
9836;SDS011;4957;51.412;6.724;2024-02-14T09:38:17;5.37;;;2.97;;
9836;SDS011;4957;51.412;6.724;2024-02-14T09:40:45;5.67;;;2.77;;
9836;SDS011;4957;51.412;6.724;2024-02-14T09:45:53;3.50;;;2.57;;
9836;SDS011;4957;51.412;6.724;2024-02-14T09:48:19;4.17;;;2.53;;
9836;SDS011;4957;51.412;6.724;2024-02-14T09:50:46;5.83;;;2.63;;
9836;SDS011;4957;51.412;6.724;2024-02-14T09:53:14;5.20;;;2.60;;
9836;SDS011;4957;51.412;6.724;2024-02-14T09:55:40;4.10;;;2.47;;
9836;SDS011;4957;51.412;6.724;2024-02-14T09:58:07;4.93;;;2.40;;
9836;SDS011;4957;51.412;6.724;2024-02-14T10:00:33;3.33;;;2.43;;
9836;SDS011;4957;51.412;6.724;2024-02-14T10:02:59;5.50;;;2.30;;
9836;SDS011;4957;51.412;6.724;2024-02-14T10:05:25;3.63;;;2.30;;
9836;SDS011;4957;51.412;6.724;2024-02-14T10:07:51;9.53;;;2.80;;
9836;SDS011;4957;51.412;6.724;2024-02-14T10:10:18;5.23;;;2.23;;
9836;SDS011;4957;51.412;6.724;2024-02-14T10:12:43;5.33;;;2.53;;
9836;SDS011;4957;51.412;6.724;2024-02-14T10:15:09;4.50;;;2.07;;
9836;SDS011;4957;51.412;6.724;2024-02-14T10:17:35;2.40;;;1.90;;
9836;SDS011;4957;51.412;6.724;2024-02-14T10:20:01;4.77;;;2.77;;
9836;SDS011;4957;51.412;6.724;2024-02-14T10:22:37;9.57;;;2.90;;
9836;SDS011;4957;51.412;6.724;2024-02-14T10:25:04;8.30;;;3.97;;
9836;SDS011;4957;51.412;6.724;2024-02-14T10:27:40;9.37;;;4.20;;
9836;SDS011;4957;51.412;6.724;2024-02-14T10:30:06;12.40;;;4.47;;
9836;SDS011;4957;51.412;6.724;2024-02-14T10:32:36;6.97;;;3.00;;
9836;SDS011;4957;51.412;6.724;2024-02-14T10:35:06;7.57;;;2.93;;
9836;SDS011;4957;51.412;6.724;2024-02-14T10:37:37;10.37;;;2.27;;
9836;SDS011;4957;51.412;6.724;2024-02-14T10:40:08;4.87;;;2.23;;
9836;SDS011;4957;51.412;6.724;2024-02-14T10:42:34;8.67;;;2.80;;
9836;SDS011;4957;51.412;6.724;2024-02-14T10:45:00;7.00;;;2.30;;
9836;SDS011;4957;51.412;6.724;2024-02-14T10:47:40;4.03;;;2.83;;
9836;SDS011;4957;51.412;6.724;2024-02-14T10:50:09;5.47;;;2.40;;
9836;SDS011;4957;51.412;6.724;2024-02-14T10:52:39;6.50;;;2.70;;
9836;SDS011;4957;51.412;6.724;2024-02-14T10:55:06;3.67;;;2.30;;
9836;SDS011;4957;51.412;6.724;2024-02-14T10:57:34;4.63;;;2.33;;
9836;SDS011;4957;51.412;6.724;2024-02-14T11:00:01;5.97;;;2.10;;
9836;SDS011;4957;51.412;6.724;2024-02-14T11:02:33;5.87;;;2.67;;
9836;SDS011;4957;51.412;6.724;2024-02-14T11:04:59;3.67;;;2.07;;
9836;SDS011;4957;51.412;6.724;2024-02-14T11:07:27;4.97;;;2.10;;
9836;SDS011;4957;51.412;6.724;2024-02-14T11:10:06;3.20;;;2.50;;
9836;SDS011;4957;51.412;6.724;2024-02-14T11:12:36;4.53;;;2.00;;
9836;SDS011;4957;51.412;6.724;2024-02-14T11:15:23;3.83;;;2.10;;
9836;SDS011;4957;51.412;6.724;2024-02-14T11:18:03;5.90;;;1.77;;
9836;SDS011;4957;51.412;6.724;2024-02-14T11:20:34;6.03;;;2.00;;
9836;SDS011;4957;51.412;6.724;2024-02-14T11:23:06;4.00;;;1.83;;
9836;SDS011;4957;51.412;6.724;2024-02-14T11:25:36;3.13;;;2.27;;
9836;SDS011;4957;51.412;6.724;2024-02-14T11:28:12;4.47;;;2.40;;
9836;SDS011;4957;51.412;6.724;2024-02-14T11:30:49;2.23;;;1.90;;
9836;SDS011;4957;51.412;6.724;2024-02-14T11:35:40;2.77;;;2.23;;
9836;SDS011;4957;51.412;6.724;2024-02-14T11:38:08;3.63;;;2.20;;
9836;SDS011;4957;51.412;6.724;2024-02-14T11:40:34;3.63;;;1.93;;
9836;SDS011;4957;51.412;6.724;2024-02-14T11:43:04;2.77;;;1.80;;
9836;SDS011;4957;51.412;6.724;2024-02-14T11:45:35;3.57;;;1.80;;
9836;SDS011;4957;51.412;6.724;2024-02-14T11:48:22;2.80;;;1.60;;
9836;SDS011;4957;51.412;6.724;2024-02-14T11:50:51;9.33;;;1.97;;
9836;SDS011;4957;51.412;6.724;2024-02-14T11:53:18;5.83;;;2.63;;
9836;SDS011;4957;51.412;6.724;2024-02-14T11:55:45;5.47;;;3.23;;
9836;SDS011;4957;51.412;6.724;2024-02-14T11:58:15;7.13;;;3.20;;
9836;SDS011;4957;51.412;6.724;2024-02-14T12:00:45;4.03;;;2.10;;
9836;SDS011;4957;51.412;6.724;2024-02-14T12:03:12;8.53;;;3.67;;
9836;SDS011;4957;51.412;6.724;2024-02-14T12:05:41;7.13;;;3.47;;
9836;SDS011;4957;51.412;6.724;2024-02-14T12:08:15;2.30;;;1.87;;
9836;SDS011;4957;51.412;6.724;2024-02-14T12:10:45;2.87;;;1.90;;
9836;SDS011;4957;51.412;6.724;2024-02-14T12:13:13;3.33;;;2.10;;
9836;SDS011;4957;51.412;6.724;2024-02-14T12:15:46;6.27;;;2.60;;
9836;SDS011;4957;51.412;6.724;2024-02-14T12:18:14;5.87;;;2.80;;
9836;SDS011;4957;51.412;6.724;2024-02-14T12:20:41;4.23;;;2.73;;
9836;SDS011;4957;51.412;6.724;2024-02-14T12:23:13;5.17;;;2.90;;
9836;SDS011;4957;51.412;6.724;2024-02-14T12:25:47;5.23;;;3.10;;
9836;SDS011;4957;51.412;6.724;2024-02-14T12:28:13;3.30;;;2.23;;
9836;SDS011;4957;51.412;6.724;2024-02-14T12:30:43;2.23;;;1.63;;
9836;SDS011;4957;51.412;6.724;2024-02-14T12:33:13;2.30;;;1.90;;
9836;SDS011;4957;51.412;6.724;2024-02-14T12:35:41;2.47;;;1.50;;
9836;SDS011;4957;51.412;6.724;2024-02-14T12:38:08;2.67;;;1.70;;
9836;SDS011;4957;51.412;6.724;2024-02-14T12:40:35;1.57;;;1.23;;
9836;SDS011;4957;51.412;6.724;2024-02-14T12:43:01;2.20;;;1.40;;
9836;SDS011;4957;51.412;6.724;2024-02-14T12:45:27;2.03;;;1.50;;
9836;SDS011;4957;51.412;6.724;2024-02-14T12:47:53;1.97;;;1.50;;
9836;SDS011;4957;51.412;6.724;2024-02-14T12:50:18;3.23;;;1.47;;
9836;SDS011;4957;51.412;6.724;2024-02-14T12:52:45;1.87;;;1.50;;
9836;SDS011;4957;51.412;6.724;2024-02-14T12:55:11;2.53;;;1.10;;
9836;SDS011;4957;51.412;6.724;2024-02-14T12:57:38;1.50;;;1.37;;
9836;SDS011;4957;51.412;6.724;2024-02-14T13:00:05;5.53;;;1.50;;
9836;SDS011;4957;51.412;6.724;2024-02-14T13:02:33;1.13;;;1.10;;
9836;SDS011;4957;51.412;6.724;2024-02-14T13:05:03;2.10;;;1.40;;
9836;SDS011;4957;51.412;6.724;2024-02-14T13:07:30;1.27;;;1.17;;
9836;SDS011;4957;51.412;6.724;2024-02-14T13:09:56;2.43;;;1.33;;
9836;SDS011;4957;51.412;6.724;2024-02-14T13:12:22;3.17;;;1.20;;
9836;SDS011;4957;51.412;6.724;2024-02-14T13:14:48;1.80;;;1.20;;
9836;SDS011;4957;51.412;6.724;2024-02-14T13:17:14;4.93;;;1.20;;
9836;SDS011;4957;51.412;6.724;2024-02-14T13:19:39;4.90;;;1.10;;
9836;SDS011;4957;51.412;6.724;2024-02-14T13:22:07;1.17;;;1.17;;
9836;SDS011;4957;51.412;6.724;2024-02-14T13:24:34;1.87;;;1.13;;
9836;SDS011;4957;51.412;6.724;2024-02-14T13:26:59;1.13;;;0.80;;
9836;SDS011;4957;51.412;6.724;2024-02-14T13:29:25;1.67;;;1.20;;
9836;SDS011;4957;51.412;6.724;2024-02-14T13:31:51;4.07;;;1.10;;
9836;SDS011;4957;51.412;6.724;2024-02-14T13:34:17;1.80;;;0.73;;
9836;SDS011;4957;51.412;6.724;2024-02-14T13:36:46;1.23;;;1.07;;
9836;SDS011;4957;51.412;6.724;2024-02-14T13:39:12;1.03;;;0.93;;
9836;SDS011;4957;51.412;6.724;2024-02-14T13:41:38;1.10;;;1.00;;
9836;SDS011;4957;51.412;6.724;2024-02-14T13:44:08;2.60;;;0.80;;
9836;SDS011;4957;51.412;6.724;2024-02-14T13:46:34;2.80;;;1.60;;
9836;SDS011;4957;51.412;6.724;2024-02-14T13:49:00;4.07;;;2.30;;
9836;SDS011;4957;51.412;6.724;2024-02-14T13:51:26;2.57;;;1.70;;
9836;SDS011;4957;51.412;6.724;2024-02-14T13:53:52;2.93;;;1.83;;
9836;SDS011;4957;51.412;6.724;2024-02-14T13:56:18;1.43;;;1.07;;
9836;SDS011;4957;51.412;6.724;2024-02-14T13:58:47;0.70;;;0.70;;
9836;SDS011;4957;51.412;6.724;2024-02-14T14:01:14;0.97;;;0.80;;
9836;SDS011;4957;51.412;6.724;2024-02-14T14:03:40;1.27;;;0.80;;
9836;SDS011;4957;51.412;6.724;2024-02-14T14:06:06;1.23;;;0.63;;
9836;SDS011;4957;51.412;6.724;2024-02-14T14:08:35;0.70;;;0.70;;
9836;SDS011;4957;51.412;6.724;2024-02-14T14:11:04;3.50;;;0.83;;
9836;SDS011;4957;51.412;6.724;2024-02-14T14:13:30;0.70;;;0.70;;
9836;SDS011;4957;51.412;6.724;2024-02-14T14:15:58;0.90;;;0.90;;
9836;SDS011;4957;51.412;6.724;2024-02-14T14:18:24;2.13;;;1.50;;
9836;SDS011;4957;51.412;6.724;2024-02-14T14:20:50;5.50;;;3.50;;
9836;SDS011;4957;51.412;6.724;2024-02-14T14:23:16;4.60;;;3.07;;
9836;SDS011;4957;51.412;6.724;2024-02-14T14:25:41;2.87;;;2.03;;
9836;SDS011;4957;51.412;6.724;2024-02-14T14:28:07;1.87;;;1.30;;
9836;SDS011;4957;51.412;6.724;2024-02-14T14:30:35;2.23;;;0.83;;
9836;SDS011;4957;51.412;6.724;2024-02-14T14:33:01;3.33;;;1.07;;
9836;SDS011;4957;51.412;6.724;2024-02-14T14:35:28;4.03;;;1.10;;
9836;SDS011;4957;51.412;6.724;2024-02-14T14:37:58;1.57;;;0.93;;
9836;SDS011;4957;51.412;6.724;2024-02-14T14:40:24;1.13;;;0.90;;
9836;SDS011;4957;51.412;6.724;2024-02-14T14:42:50;2.57;;;1.87;;
9836;SDS011;4957;51.412;6.724;2024-02-14T14:45:16;4.70;;;1.33;;
9836;SDS011;4957;51.412;6.724;2024-02-14T14:47:42;1.57;;;1.03;;
9836;SDS011;4957;51.412;6.724;2024-02-14T14:50:10;2.20;;;1.47;;
9836;SDS011;4957;51.412;6.724;2024-02-14T14:52:37;3.03;;;1.10;;
9836;SDS011;4957;51.412;6.724;2024-02-14T14:55:07;0.67;;;0.67;;
9836;SDS011;4957;51.412;6.724;2024-02-14T14:57:33;1.53;;;1.10;;
9836;SDS011;4957;51.412;6.724;2024-02-14T15:00:08;1.70;;;1.60;;
9836;SDS011;4957;51.412;6.724;2024-02-14T15:02:40;2.60;;;1.53;;
9836;SDS011;4957;51.412;6.724;2024-02-14T15:05:12;3.20;;;2.00;;
9836;SDS011;4957;51.412;6.724;2024-02-14T15:07:39;1.73;;;1.60;;
9836;SDS011;4957;51.412;6.724;2024-02-14T15:10:05;3.10;;;1.77;;
9836;SDS011;4957;51.412;6.724;2024-02-14T15:12:33;1.60;;;1.50;;
9836;SDS011;4957;51.412;6.724;2024-02-14T15:15:10;1.00;;;1.00;;
9836;SDS011;4957;51.412;6.724;2024-02-14T15:17:35;1.00;;;0.90;;
9836;SDS011;4957;51.412;6.724;2024-02-14T15:20:01;1.73;;;0.53;;